Time;durP1;ratioP1;P1;durP2;ratioP2;P2;SDS_P1;SDS_P2;PMS_P1;PMS_P2;Temp;Humidity;BMP_temperature;BMP_pressure;BME280_temperature;BME280_humidity;BME280_pressure;Samples;Min_cycle;Max_cycle;Signal;HPM_P1;HPM_P2
2023/08/20 00:01:03;;;;;;;8.87;7.70;;;22.00;99.90;;;;;;5050890;28;20451;-74
2023/08/20 00:03:30;;;;;;;9.40;7.20;;;22.00;99.90;;;;;;5050904;28;21186;-74
2023/08/20 00:05:58;;;;;;;12.40;8.03;;;22.00;99.90;;;;;;5050949;28;20943;-74
2023/08/20 00:08:24;;;;;;;7.77;6.97;;;22.00;99.90;;;;;;5050711;28;20472;-74
2023/08/20 00:10:51;;;;;;;19.70;9.17;;;22.00;99.90;;;;;;5050550;28;20453;-74
2023/08/20 00:13:18;;;;;;;10.50;7.23;;;21.90;99.90;;;;;;5050202;28;20488;-74
2023/08/20 00:15:45;;;;;;;13.43;8.50;;;21.90;99.90;;;;;;5050661;28;20449;-75
2023/08/20 00:18:13;;;;;;;14.53;8.80;;;22.00;99.90;;;;;;5050265;28;20893;-74
2023/08/20 00:20:41;;;;;;;10.97;8.67;;;21.90;99.90;;;;;;5050634;28;20448;-74
2023/08/20 00:23:08;;;;;;;16.20;7.80;;;21.90;99.90;;;;;;5050710;28;20809;-74
2023/08/20 00:25:36;;;;;;;13.40;8.10;;;21.90;99.90;;;;;;5050548;28;20498;-74
2023/08/20 00:28:02;;;;;;;14.60;8.53;;;21.90;99.90;;;;;;5049240;28;20557;-74
2023/08/20 00:30:29;;;;;;;11.53;7.97;;;21.90;99.90;;;;;;5051398;28;20498;-74
2023/08/20 00:32:56;;;;;;;15.80;8.10;;;21.80;99.90;;;;;;5054583;28;20529;-74
2023/08/20 00:35:24;;;;;;;11.23;7.63;;;21.80;99.90;;;;;;5054585;28;20448;-74
2023/08/20 00:37:51;;;;;;;11.10;8.20;;;21.80;99.90;;;;;;5054052;28;20448;-74
2023/08/20 00:40:17;;;;;;;14.60;8.17;;;21.70;99.90;;;;;;5053921;28;20453;-74
2023/08/20 00:42:44;;;;;;;12.60;7.63;;;21.60;99.90;;;;;;5053879;28;20497;-74
2023/08/20 00:45:12;;;;;;;14.40;8.73;;;21.60;99.90;;;;;;5054076;28;20502;-74
2023/08/20 00:47:39;;;;;;;10.87;8.17;;;21.60;99.90;;;;;;5053889;28;20456;-74
2023/08/20 00:50:06;;;;;;;10.23;7.80;;;21.50;99.90;;;;;;5054135;28;20468;-74
2023/08/20 00:52:35;;;;;;;12.23;8.10;;;21.50;99.90;;;;;;5053719;28;20577;-74
2023/08/20 00:55:09;;;;;;;9.20;8.27;;;21.50;99.90;;;;;;5053864;28;20861;-74
2023/08/20 00:57:36;;;;;;;9.87;8.03;;;21.50;99.90;;;;;;5053480;28;20536;-74
2023/08/20 01:00:06;;;;;;;13.30;9.07;;;21.50;99.90;;;;;;5053771;28;20563;-74
2023/08/20 01:02:34;;;;;;;12.60;8.07;;;21.40;99.90;;;;;;5053560;28;21034;-74
2023/08/20 01:05:02;;;;;;;14.33;8.80;;;21.40;99.90;;;;;;5053845;28;20456;-74
2023/08/20 01:07:34;;;;;;;11.70;8.10;;;21.40;99.90;;;;;;5053372;28;20452;-74
2023/08/20 01:10:09;;;;;;;9.50;8.43;;;21.40;99.90;;;;;;5053111;28;20538;-74
2023/08/20 01:12:37;;;;;;;15.00;8.90;;;21.40;99.90;;;;;;5053350;28;20481;-74
2023/08/20 01:15:04;;;;;;;10.00;8.07;;;21.30;99.90;;;;;;5053249;28;20445;-74
2023/08/20 01:17:30;;;;;;;14.80;8.07;;;21.30;99.90;;;;;;5053260;28;20452;-74
2023/08/20 01:19:57;;;;;;;9.73;8.30;;;21.30;99.90;;;;;;5053497;28;20466;-74
2023/08/20 01:23:05;;;;;;;12.43;8.60;;;21.30;99.90;;;;;;5053329;28;20448;-74
2023/08/20 01:25:47;;;;;;;9.77;8.60;;;21.30;99.90;;;;;;5045429;28;20464;-74
2023/08/20 01:28:33;;;;;;;10.47;8.00;;;21.30;99.90;;;;;;5053151;28;20514;-74
2023/08/20 01:31:01;;;;;;;15.70;9.50;;;21.20;99.90;;;;;;5053793;28;20481;-74
2023/08/20 01:33:29;;;;;;;12.30;8.07;;;21.20;99.90;;;;;;5053241;28;20579;-74
2023/08/20 01:35:56;;;;;;;11.67;8.60;;;21.20;99.90;;;;;;5052893;28;20463;-74
2023/08/20 01:38:23;;;;;;;9.37;8.17;;;21.20;99.90;;;;;;5052811;28;20472;-74
2023/08/20 01:40:50;;;;;;;14.07;8.37;;;21.20;99.90;;;;;;5052855;28;20475;-74
2023/08/20 01:43:17;;;;;;;14.20;7.70;;;21.20;99.90;;;;;;5052776;28;20502;-74
2023/08/20 01:45:45;;;;;;;12.63;8.40;;;21.10;99.90;;;;;;5053139;28;20858;-74
2023/08/20 01:48:11;;;;;;;12.10;8.50;;;21.00;99.90;;;;;;5048630;28;20488;-74
2023/08/20 01:50:38;;;;;;;16.57;9.20;;;21.00;99.90;;;;;;5052673;28;20448;-74
2023/08/20 01:53:05;;;;;;;11.63;8.90;;;21.00;99.90;;;;;;5052679;28;20522;-74
2023/08/20 01:55:31;;;;;;;14.67;9.00;;;21.00;99.90;;;;;;5052680;28;20932;-74
2023/08/20 01:57:58;;;;;;;12.90;9.50;;;21.00;99.90;;;;;;5052300;28;20456;-74
2023/08/20 02:00:25;;;;;;;12.87;9.87;;;21.00;99.90;;;;;;5052383;28;20518;-74
2023/08/20 02:02:53;;;;;;;13.10;8.73;;;20.90;99.90;;;;;;5052581;28;20452;-74
2023/08/20 02:05:20;;;;;;;10.63;9.13;;;20.90;99.90;;;;;;5052622;28;20627;-74
2023/08/20 02:07:47;;;;;;;10.53;9.07;;;20.90;99.90;;;;;;5052369;28;20456;-74
2023/08/20 02:10:13;;;;;;;14.27;9.70;;;20.90;99.90;;;;;;5052257;28;20460;-74
2023/08/20 02:12:41;;;;;;;13.77;8.77;;;20.90;99.90;;;;;;5052563;28;20507;-73
2023/08/20 02:15:10;;;;;;;22.33;10.43;;;20.80;99.90;;;;;;5052653;28;20444;-73
2023/08/20 02:17:37;;;;;;;11.90;9.17;;;20.80;99.90;;;;;;5052180;28;20530;-74
2023/08/20 02:20:06;;;;;;;14.87;9.77;;;20.70;99.90;;;;;;5052087;28;20527;-74
2023/08/20 02:22:34;;;;;;;15.60;9.63;;;20.70;99.90;;;;;;5052305;28;21058;-74
2023/08/20 02:25:00;;;;;;;13.13;10.07;;;20.70;99.90;;;;;;5052422;28;20445;-74
2023/08/20 02:27:27;;;;;;;11.47;8.53;;;20.70;99.90;;;;;;5051622;28;20456;-74
2023/08/20 02:29:54;;;;;;;14.37;9.27;;;20.70;99.90;;;;;;5051010;28;20472;-74
2023/08/20 02:32:20;;;;;;;16.47;10.57;;;20.80;99.90;;;;;;5052301;28;20506;-74
2023/08/20 02:34:50;;;;;;;16.57;10.10;;;20.60;99.90;;;;;;5052089;28;20527;-74
2023/08/20 02:37:18;;;;;;;22.00;11.60;;;20.60;99.90;;;;;;5051330;28;20464;-74
2023/08/20 02:39:44;;;;;;;17.10;11.53;;;20.70;99.90;;;;;;5051465;28;20469;-74
2023/08/20 02:42:11;;;;;;;14.53;11.60;;;20.70;99.90;;;;;;5052033;28;20522;-74
2023/08/20 02:44:38;;;;;;;15.00;11.00;;;20.70;99.90;;;;;;5051768;28;20452;-74
2023/08/20 02:47:04;;;;;;;13.03;11.57;;;20.80;99.90;;;;;;5051448;28;20537;-74
2023/08/20 02:49:31;;;;;;;15.83;10.90;;;20.80;99.90;;;;;;5051846;28;20530;-74
2023/08/20 02:51:58;;;;;;;14.00;10.67;;;20.80;99.90;;;;;;5051910;28;20478;-74
2023/08/20 02:54:26;;;;;;;13.97;10.27;;;20.80;99.90;;;;;;5050916;28;20569;-74
2023/08/20 02:56:53;;;;;;;20.40;10.37;;;20.80;99.90;;;;;;5051622;28;20636;-74
2023/08/20 02:59:20;;;;;;;16.90;10.73;;;20.80;99.90;;;;;;5051439;28;20475;-74
2023/08/20 03:01:46;;;;;;;17.17;11.73;;;20.80;99.90;;;;;;5051685;28;20869;-74
2023/08/20 03:04:13;;;;;;;11.63;10.43;;;20.80;99.90;;;;;;5051812;28;20499;-74
2023/08/20 03:06:40;;;;;;;11.80;10.33;;;20.70;99.90;;;;;;5051256;28;20445;-74
2023/08/20 03:09:07;;;;;;;17.90;10.90;;;20.70;99.90;;;;;;5051523;28;20468;-74
2023/08/20 03:11:34;;;;;;;19.70;10.67;;;20.60;99.90;;;;;;5051220;28;20518;-74
2023/08/20 03:14:02;;;;;;;19.43;9.97;;;20.60;99.90;;;;;;5051411;28;20480;-74
2023/08/20 03:16:28;;;;;;;11.63;9.10;;;20.50;99.90;;;;;;5050864;28;20488;-74
2023/08/20 03:18:55;;;;;;;16.70;10.87;;;20.50;99.90;;;;;;5050908;28;20473;-74
2023/08/20 03:21:21;;;;;;;14.33;10.50;;;20.40;99.90;;;;;;5051133;28;20460;-74
2023/08/20 03:23:48;;;;;;;15.53;10.50;;;20.30;99.90;;;;;;5051471;28;20448;-74
2023/08/20 03:26:15;;;;;;;12.27;10.67;;;20.30;99.90;;;;;;5051302;28;20448;-74
2023/08/20 03:28:43;;;;;;;17.90;11.33;;;20.30;99.90;;;;;;5050776;28;20476;-74
2023/08/20 03:31:09;;;;;;;17.87;11.33;;;20.30;99.90;;;;;;5050845;28;20453;-75
2023/08/20 03:33:36;;;;;;;18.33;11.60;;;20.30;99.90;;;;;;5050796;28;20484;-74
2023/08/20 03:36:03;;;;;;;18.73;12.50;;;20.20;99.90;;;;;;5051234;28;20871;-74
2023/08/20 03:38:29;;;;;;;14.43;10.73;;;20.20;99.90;;;;;;5050692;28;20476;-74
2023/08/20 03:40:56;;;;;;;15.47;12.03;;;20.20;99.90;;;;;;5051160;28;20441;-74
2023/08/20 03:43:23;;;;;;;16.47;11.20;;;20.20;99.90;;;;;;5051291;28;20445;-73
2023/08/20 03:45:52;;;;;;;14.87;11.93;;;20.20;99.90;;;;;;5050246;28;21085;-74
2023/08/20 03:48:19;;;;;;;14.93;12.37;;;20.20;99.90;;;;;;5050418;28;20476;-74
2023/08/20 03:50:45;;;;;;;23.67;11.33;;;20.20;99.90;;;;;;5050908;28;20448;-74
2023/08/20 03:53:12;;;;;;;17.40;12.13;;;20.00;99.90;;;;;;5050866;28;20452;-73
2023/08/20 03:55:39;;;;;;;17.53;12.40;;;20.20;99.90;;;;;;5050822;28;20923;-74
2023/08/20 03:58:05;;;;;;;17.80;12.90;;;20.20;99.90;;;;;;5050799;28;20469;-74
2023/08/20 04:00:32;;;;;;;20.33;13.57;;;20.20;99.90;;;;;;5050065;28;20502;-73
2023/08/20 04:03:00;;;;;;;19.77;14.00;;;20.20;99.90;;;;;;5050786;28;20474;-73
2023/08/20 04:05:27;;;;;;;19.03;13.60;;;20.10;99.90;;;;;;5053826;28;20452;-74
2023/08/20 04:07:53;;;;;;;27.30;14.20;;;20.20;99.90;;;;;;5054756;28;20494;-74
2023/08/20 04:10:20;;;;;;;22.80;14.37;;;20.20;99.90;;;;;;5054977;28;20452;-73
2023/08/20 04:12:46;;;;;;;17.30;14.80;;;20.30;99.90;;;;;;5054982;28;20851;-74
2023/08/20 04:15:13;;;;;;;18.70;13.73;;;20.40;99.90;;;;;;5054640;28;20517;-74
2023/08/20 04:17:40;;;;;;;26.83;15.50;;;20.30;99.90;;;;;;5053685;28;20498;-74
2023/08/20 04:20:09;;;;;;;18.93;14.43;;;20.30;99.90;;;;;;5054701;28;20468;-73
2023/08/20 04:22:37;;;;;;;25.53;14.77;;;20.40;99.90;;;;;;5054850;28;20889;-74
2023/08/20 04:25:03;;;;;;;20.93;14.30;;;20.40;99.90;;;;;;5054369;28;20457;-74
2023/08/20 04:27:30;;;;;;;19.83;13.60;;;20.40;99.90;;;;;;5054308;28;20972;-74
2023/08/20 04:29:57;;;;;;;18.17;14.23;;;20.40;99.90;;;;;;5053924;28;20464;-74
2023/08/20 04:32:24;;;;;;;20.00;14.13;;;20.40;99.90;;;;;;5054733;28;20448;-73
2023/08/20 04:34:52;;;;;;;16.20;13.33;;;20.50;99.90;;;;;;5054171;28;20488;-74
2023/08/20 04:37:20;;;;;;;17.60;13.60;;;20.50;99.90;;;;;;5053370;28;20461;-74
2023/08/20 04:39:46;;;;;;;17.27;12.10;;;20.50;99.90;;;;;;5054157;28;20476;-74
2023/08/20 04:42:13;;;;;;;24.60;13.43;;;20.50;99.90;;;;;;5054337;28;20510;-73
2023/08/20 04:44:40;;;;;;;16.40;13.07;;;20.40;99.90;;;;;;5053627;28;20998;-74
2023/08/20 04:47:06;;;;;;;19.20;12.87;;;20.50;99.90;;;;;;5053794;28;20928;-74
2023/08/20 04:49:33;;;;;;;17.03;12.77;;;20.50;99.90;;;;;;5054437;28;20472;-74
2023/08/20 04:51:59;;;;;;;18.90;12.80;;;20.50;99.90;;;;;;5053832;28;21140;-74
2023/08/20 04:54:27;;;;;;;19.07;12.27;;;20.50;99.90;;;;;;5054101;28;20518;-74
2023/08/20 04:56:54;;;;;;;19.97;12.33;;;20.50;99.90;;;;;;5053619;28;20586;-74
2023/08/20 04:59:21;;;;;;;18.13;12.37;;;20.50;99.90;;;;;;5053202;28;20475;-74
2023/08/20 05:01:47;;;;;;;17.13;12.73;;;20.50;99.90;;;;;;5053807;28;20459;-74
2023/08/20 05:04:14;;;;;;;17.50;12.30;;;20.50;99.90;;;;;;5053962;28;20869;-74
2023/08/20 05:06:40;;;;;;;19.53;12.70;;;20.50;99.90;;;;;;5053265;28;20448;-74
2023/08/20 05:09:07;;;;;;;16.00;11.13;;;20.50;99.90;;;;;;5052515;28;20439;-67
2023/08/20 05:11:35;;;;;;;16.70;12.10;;;20.50;99.90;;;;;;5053246;28;20206;-67
2023/08/20 05:14:02;;;;;;;14.13;12.47;;;20.50;99.90;;;;;;5053879;28;20488;-66
2023/08/20 05:16:28;;;;;;;14.60;12.53;;;20.50;99.90;;;;;;5052863;28;20559;-67
2023/08/20 05:18:55;;;;;;;23.70;13.73;;;20.50;99.90;;;;;;5053383;28;20478;-67
2023/08/20 05:21:22;;;;;;;18.67;12.67;;;20.60;99.90;;;;;;5053275;28;20452;-67
2023/08/20 05:23:48;;;;;;;17.00;13.17;;;20.60;99.90;;;;;;5053403;28;20444;-67
2023/08/20 05:26:15;;;;;;;16.73;12.33;;;20.70;99.90;;;;;;5053316;28;20878;-67
2023/08/20 05:28:43;;;;;;;19.73;12.10;;;20.70;99.90;;;;;;5053020;28;20506;-67
2023/08/20 05:31:10;;;;;;;19.40;12.50;;;20.70;99.90;;;;;;5053306;28;20452;-67
2023/08/20 05:33:37;;;;;;;17.03;13.43;;;20.80;99.90;;;;;;5053324;28;20536;-67
2023/08/20 05:36:04;;;;;;;16.10;12.50;;;20.80;99.90;;;;;;5052917;28;20536;-67
2023/08/20 05:38:30;;;;;;;19.60;12.63;;;20.90;99.90;;;;;;5052764;28;20476;-67
2023/08/20 05:40:57;;;;;;;22.57;13.23;;;20.90;99.90;;;;;;5052970;28;20510;-67
2023/08/20 05:43:23;;;;;;;17.63;12.70;;;21.00;99.90;;;;;;5053395;28;20448;-67
2023/08/20 05:45:51;;;;;;;19.40;12.53;;;21.10;99.90;;;;;;5052922;28;20547;-67
2023/08/20 05:48:18;;;;;;;17.93;11.90;;;21.20;99.90;;;;;;5052630;28;20526;-67
2023/08/20 05:50:45;;;;;;;19.30;12.07;;;21.20;99.90;;;;;;5052908;28;20502;-67
2023/08/20 05:53:12;;;;;;;13.70;11.50;;;21.40;99.90;;;;;;5052862;28;20475;-67
2023/08/20 05:55:39;;;;;;;13.90;11.07;;;21.50;99.90;;;;;;5052924;28;20554;-67
2023/08/20 05:58:05;;;;;;;14.90;10.70;;;21.70;99.90;;;;;;5044369;28;20551;-67
2023/08/20 06:00:32;;;;;;;12.83;10.80;;;21.80;99.90;;;;;;5052700;28;20583;-67
2023/08/20 06:03:00;;;;;;;16.97;11.63;;;21.90;99.90;;;;;;5051687;28;20948;-67
2023/08/20 06:05:27;;;;;;;13.30;11.17;;;21.90;99.90;;;;;;5052782;28;20441;-67
2023/08/20 06:07:53;;;;;;;17.87;11.37;;;22.10;99.90;;;;;;5052032;28;20444;-67
2023/08/20 06:10:20;;;;;;;13.10;11.07;;;22.20;99.90;;;;;;5052476;28;20960;-67
2023/08/20 06:12:47;;;;;;;17.67;10.80;;;22.30;99.90;;;;;;5052321;28;20878;-67
2023/08/20 06:15:14;;;;;;;20.33;10.70;;;22.50;99.90;;;;;;5052046;28;20492;-67
2023/08/20 06:17:40;;;;;;;16.93;10.70;;;22.80;99.90;;;;;;5051821;28;20453;-67
2023/08/20 06:20:11;;;;;;;19.83;11.83;;;23.10;99.90;;;;;;5052509;28;20976;-67
2023/08/20 06:22:38;;;;;;;13.97;10.93;;;23.20;99.90;;;;;;5051673;28;20987;-67
2023/08/20 06:25:05;;;;;;;19.23;12.30;;;23.30;99.90;;;;;;5052185;28;21021;-67
2023/08/20 06:27:32;;;;;;;20.73;11.50;;;23.50;99.90;;;;;;5051141;28;20494;-67
2023/08/20 06:30:00;;;;;;;15.97;11.57;;;23.70;99.90;;;;;;5050785;28;20472;-67
2023/08/20 06:32:26;;;;;;;17.93;12.80;;;24.00;99.90;;;;;;5050640;28;20461;-67
2023/08/20 06:34:53;;;;;;;22.73;13.93;;;24.00;99.90;;;;;;5051506;28;20908;-67
2023/08/20 06:37:21;;;;;;;18.40;14.47;;;23.90;99.90;;;;;;5044792;28;21156;-68
2023/08/20 06:39:48;;;;;;;27.23;15.63;;;23.60;99.90;;;;;;5045171;28;20976;-67
2023/08/20 06:42:14;;;;;;;22.30;15.73;;;23.40;99.90;;;;;;5045145;28;20441;-67
2023/08/20 06:44:41;;;;;;;29.67;16.80;;;23.30;99.90;;;;;;5044112;28;20523;-67
2023/08/20 06:47:08;;;;;;;22.30;15.93;;;23.30;99.90;;;;;;5044575;28;20885;-67
2023/08/20 06:49:34;;;;;;;24.33;15.17;;;23.20;99.90;;;;;;5045547;28;20469;-67
2023/08/20 06:52:01;;;;;;;29.80;16.17;;;23.00;99.90;;;;;;5044422;28;20475;-67
2023/08/20 06:54:29;;;;;;;29.73;17.90;;;22.90;99.90;;;;;;5042959;28;21880;-67
2023/08/20 06:56:55;;;;;;;34.87;17.80;;;22.70;99.90;;;;;;5042678;28;20457;-67
2023/08/20 06:59:22;;;;;;;24.50;17.10;;;22.60;99.90;;;;;;5043678;28;20823;-68
2023/08/20 07:01:49;;;;;;;24.40;16.73;;;22.60;99.90;;;;;;5050640;28;20455;-67
2023/08/20 07:04:16;;;;;;;28.83;17.90;;;22.80;99.90;;;;;;5051322;28;20870;-67
2023/08/20 07:06:42;;;;;;;31.20;18.10;;;23.00;99.90;;;;;;5042750;28;20520;-68
2023/08/20 07:09:09;;;;;;;26.00;17.50;;;23.30;99.90;;;;;;5044240;28;20460;-68
2023/08/20 07:11:37;;;;;;;25.43;16.93;;;23.60;99.90;;;;;;5042368;28;20996;-69
2023/08/20 07:14:04;;;;;;;31.70;18.60;;;23.70;99.90;;;;;;5045344;28;20510;-67
2023/08/20 07:16:31;;;;;;;29.37;19.27;;;23.90;99.90;;;;;;5044733;28;20484;-69
2023/08/20 07:18:58;;;;;;;31.67;18.80;;;24.20;99.90;;;;;;5044626;28;20475;-67
2023/08/20 07:21:25;;;;;;;29.03;18.60;;;24.40;99.90;;;;;;5042945;28;20457;-69
2023/08/20 07:23:51;;;;;;;26.40;17.93;;;24.50;99.90;;;;;;5034476;28;20446;-67
2023/08/20 07:26:18;;;;;;;33.33;20.13;;;24.60;99.90;;;;;;5036942;28;20445;-67
2023/08/20 07:28:58;;;;;;;26.97;18.20;;;24.70;99.90;;;;;;5030722;28;20968;-68
2023/08/20 07:31:26;;;;;;;27.60;18.90;;;24.60;99.90;;;;;;5034727;28;20972;-67
2023/08/20 07:33:54;;;;;;;26.87;19.23;;;24.60;99.90;;;;;;5041273;28;20861;-67
2023/08/20 07:36:22;;;;;;;31.17;20.00;;;24.60;99.90;;;;;;5033873;28;20488;-67
2023/08/20 07:38:49;;;;;;;33.30;20.10;;;24.80;99.90;;;;;;5036412;28;20473;-69
2023/08/20 07:41:16;;;;;;;36.13;20.97;;;25.00;99.90;;;;;;5043717;28;20456;-69
2023/08/20 07:43:43;;;;;;;27.47;19.47;;;25.30;99.90;;;;;;5037526;28;20499;-67
2023/08/20 07:46:11;;;;;;;27.97;19.70;;;25.50;99.90;;;;;;5043376;28;20835;-69
2023/08/20 07:48:37;;;;;;;28.93;20.27;;;25.80;99.90;;;;;;5036303;28;20480;-69
2023/08/20 07:51:06;;;;;;;28.30;20.00;;;26.00;99.90;;;;;;5041922;28;20484;-69
2023/08/20 07:53:33;;;;;;;32.27;20.20;;;26.20;99.90;;;;;;5042366;28;20440;-69
2023/08/20 07:56:01;;;;;;;31.40;20.37;;;26.40;99.90;;;;;;5041825;28;20563;-69
2023/08/20 07:58:28;;;;;;;27.30;19.33;;;26.40;99.90;;;;;;5038691;28;20965;-70
2023/08/20 08:00:54;;;;;;;28.80;19.30;;;26.50;99.90;;;;;;5043992;28;20514;-70
2023/08/20 08:03:22;;;;;;;32.70;19.90;;;26.50;99.90;;;;;;5046016;28;20522;-70
2023/08/20 08:05:49;;;;;;;33.63;20.20;;;26.70;99.90;;;;;;5041217;28;20536;-69
2023/08/20 08:08:16;;;;;;;31.47;20.40;;;26.70;99.90;;;;;;5041647;28;20465;-70
2023/08/20 08:10:44;;;;;;;32.43;21.53;;;26.80;99.90;;;;;;5041418;28;20453;-69
2023/08/20 08:13:11;;;;;;;26.37;19.37;;;27.00;99.90;;;;;;5041329;28;20457;-69
2023/08/20 08:15:37;;;;;;;26.57;18.80;;;27.10;99.90;;;;;;5038117;28;20476;-70
2023/08/20 08:18:04;;;;;;;27.67;19.10;;;27.20;99.90;;;;;;5039815;28;20519;-67
2023/08/20 08:20:32;;;;;;;25.37;18.60;;;27.50;99.90;;;;;;5040121;28;20839;-67
2023/08/20 08:22:59;;;;;;;29.80;18.27;;;27.60;99.90;;;;;;5041730;28;20793;-67
2023/08/20 08:25:26;;;;;;;26.93;18.90;;;27.80;99.90;;;;;;5036677;28;20441;-67
2023/08/20 08:27:52;;;;;;;24.67;17.90;;;28.00;99.90;;;;;;5039888;28;20441;-67
2023/08/20 08:30:19;;;;;;;25.07;17.67;;;28.20;99.90;;;;;;5042865;28;20437;-66
2023/08/20 08:32:46;;;;;;;23.97;17.40;;;28.40;99.90;;;;;;5042275;28;20475;-74
2023/08/20 08:35:13;;;;;;;21.30;16.50;;;28.50;99.90;;;;;;5041595;28;20554;-75
2023/08/20 08:37:41;;;;;;;24.20;17.27;;;28.60;99.90;;;;;;5044720;28;20452;-69
2023/08/20 08:40:09;;;;;;;22.47;17.57;;;28.80;99.90;;;;;;5048445;28;20507;-73
2023/08/20 08:42:36;;;;;;;26.97;17.90;;;28.90;99.90;;;;;;5042348;28;20464;-72
2023/08/20 08:45:04;;;;;;;27.63;17.03;;;28.90;99.90;;;;;;5030816;28;20464;-72
2023/08/20 08:47:30;;;;;;;18.97;15.43;;;28.90;99.90;;;;;;5040380;28;20467;-71
2023/08/20 08:49:57;;;;;;;17.13;13.97;;;29.00;99.90;;;;;;5040595;28;20518;-73
2023/08/20 08:52:25;;;;;;;18.70;14.77;;;29.10;99.90;;;;;;5032802;28;20511;-73
2023/08/20 08:54:53;;;;;;;22.73;15.53;;;29.20;99.90;;;;;;5036726;28;20509;-73
2023/08/20 08:57:20;;;;;;;18.23;13.93;;;29.10;99.90;;;;;;5043555;28;20490;-75
2023/08/20 08:59:47;;;;;;;20.60;13.90;;;29.00;99.90;;;;;;5052270;28;20472;-73
2023/08/20 09:02:14;;;;;;;21.73;14.33;;;28.90;99.90;;;;;;5038032;28;20448;-73
2023/08/20 09:04:41;;;;;;;17.70;13.50;;;29.10;99.90;;;;;;5039211;28;20453;-75
2023/08/20 09:07:12;;;;;;;16.63;13.20;;;29.20;99.90;;;;;;5042912;28;20805;-74
2023/08/20 09:09:43;;;;;;;16.63;12.60;;;29.50;99.90;;;;;;5046630;28;20549;-76
2023/08/20 09:12:15;;;;;;;15.10;12.30;;;29.70;99.90;;;;;;5036023;28;20460;-74
2023/08/20 09:14:45;;;;;;;12.77;11.23;;;30.10;99.90;;;;;;5034230;28;20548;-74
2023/08/20 09:17:12;;;;;;;12.83;11.53;;;30.40;99.90;;;;;;5038479;28;20488;-74
2023/08/20 09:19:39;;;;;;;13.47;10.20;;;30.70;99.90;;;;;;5053314;28;20530;-74
2023/08/20 09:22:06;;;;;;;10.27;9.27;;;30.70;99.90;;;;;;5053158;28;20510;-73
2023/08/20 09:24:35;;;;;;;11.50;10.33;;;30.80;99.90;;;;;;5053161;28;20468;-73
2023/08/20 09:27:04;;;;;;;13.27;9.07;;;30.80;99.90;;;;;;5044110;28;20457;-74
2023/08/20 09:29:35;;;;;;;15.50;9.30;;;30.80;99.90;;;;;;5046869;28;20504;-73
2023/08/20 09:32:02;;;;;;;12.10;10.80;;;30.80;99.90;;;;;;5044688;28;20456;-73
2023/08/20 09:34:37;;;;;;;13.67;11.10;;;30.90;99.90;;;;;;5041767;28;20485;-73
2023/08/20 09:37:04;;;;;;;12.80;10.07;;;30.70;99.90;;;;;;5041941;28;20538;-73
2023/08/20 09:39:31;;;;;;;13.00;9.90;;;30.50;99.90;;;;;;5037642;28;20979;-73
2023/08/20 09:42:00;;;;;;;11.50;9.70;;;30.80;99.90;;;;;;5048121;28;20452;-74
2023/08/20 09:44:33;;;;;;;20.10;10.40;;;30.80;99.90;;;;;;5036426;28;20944;-74
2023/08/20 09:47:01;;;;;;;10.97;9.73;;;31.00;99.90;;;;;;5038173;28;20458;-73
2023/08/20 09:49:30;;;;;;;12.57;10.57;;;31.10;99.90;;;;;;5041108;28;20563;-73
2023/08/20 09:51:59;;;;;;;11.80;10.60;;;31.10;99.90;;;;;;5042957;28;20448;-73
2023/08/20 09:54:33;;;;;;;11.50;9.33;;;31.30;99.90;;;;;;5040551;28;20483;-73
2023/08/20 09:57:02;;;;;;;16.10;9.80;;;31.40;99.90;;;;;;5040152;28;20904;-73
2023/08/20 09:59:30;;;;;;;14.10;9.00;;;31.70;99.90;;;;;;5038940;28;20543;-73
2023/08/20 10:01:57;;;;;;;13.30;9.87;;;31.40;99.90;;;;;;5043087;28;20973;-73
2023/08/20 10:04:26;;;;;;;12.97;9.10;;;31.70;99.90;;;;;;5047119;28;20445;-74
2023/08/20 10:06:54;;;;;;;9.83;8.73;;;31.80;99.90;;;;;;5044779;28;20440;-73
2023/08/20 10:09:22;;;;;;;13.30;10.40;;;32.00;99.90;;;;;;5046946;28;20511;-73
2023/08/20 10:11:49;;;;;;;10.63;8.20;;;31.90;99.90;;;;;;5042757;28;20492;-74
2023/08/20 10:14:15;;;;;;;8.70;7.80;;;32.00;99.90;;;;;;5038707;28;20444;-74
2023/08/20 10:16:42;;;;;;;9.90;8.87;;;31.70;99.90;;;;;;5032170;28;20477;-74
2023/08/20 10:19:09;;;;;;;9.77;8.70;;;31.70;99.90;;;;;;5048599;28;20875;-75
2023/08/20 10:21:37;;;;;;;11.20;8.37;;;31.80;99.90;;;;;;5052442;28;20494;-74
2023/08/20 10:24:05;;;;;;;9.90;9.00;;;31.90;99.90;;;;;;5051009;28;20456;-74
2023/08/20 10:26:34;;;;;;;14.00;11.17;;;31.90;99.90;;;;;;5046357;28;20464;-74
2023/08/20 10:29:34;;;;;;;14.53;9.83;;;32.00;99.90;;;;;;5039670;28;20590;-75
2023/08/20 10:32:01;;;;;;;10.40;9.40;;;32.00;99.90;;;;;;5048229;28;20452;-74
2023/08/20 10:34:34;;;;;;;10.53;8.93;;;31.90;99.90;;;;;;5040138;28;20540;-75
2023/08/20 10:37:04;;;;;;;10.67;7.90;;;31.80;99.90;;;;;;5050315;28;20491;-75
2023/08/20 10:39:30;;;;;;;10.13;8.27;;;31.80;99.90;;;;;;5038972;28;21091;-74
2023/08/20 10:42:11;;;;;;;10.03;7.97;;;31.90;99.90;;;;;;5044578;28;20452;-76
2023/08/20 10:44:57;;;;;;;11.90;8.77;;;31.80;99.90;;;;;;5033404;28;20460;-76
2023/08/20 10:47:24;;;;;;;9.97;8.97;;;32.00;99.90;;;;;;5033932;28;20966;-75
2023/08/20 10:49:52;;;;;;;11.13;8.67;;;32.10;99.90;;;;;;5035933;28;20496;-75
2023/08/20 10:52:20;;;;;;;11.40;9.40;;;31.90;99.90;;;;;;5043749;28;20461;-75
2023/08/20 10:54:51;;;;;;;10.70;8.80;;;31.90;99.90;;;;;;5041567;28;20456;-76
2023/08/20 10:57:17;;;;;;;10.63;9.10;;;31.60;99.90;;;;;;5030974;28;21075;-76
2023/08/20 10:59:44;;;;;;;11.37;9.90;;;31.80;99.90;;;;;;5043171;28;20476;-76
2023/08/20 11:02:16;;;;;;;12.57;9.53;;;32.00;99.90;;;;;;5051351;28;20444;-76
2023/08/20 11:04:43;;;;;;;11.20;10.10;;;32.30;99.90;;;;;;5051201;28;20531;-75
2023/08/20 11:07:10;;;;;;;13.87;10.20;;;32.70;99.90;;;;;;5043375;28;20460;-76
2023/08/20 11:09:39;;;;;;;15.80;10.50;;;32.80;99.90;;;;;;5031820;28;20485;-75
2023/08/20 11:12:07;;;;;;;11.40;10.20;;;33.00;99.90;;;;;;5041471;28;20543;-76
2023/08/20 11:14:35;;;;;;;10.17;9.17;;;33.20;99.90;;;;;;5040778;28;20489;-77
2023/08/20 11:17:02;;;;;;;10.83;9.67;;;33.30;99.90;;;;;;5041584;28;20477;-74
2023/08/20 11:19:29;;;;;;;11.17;9.80;;;33.40;99.90;;;;;;5045881;28;20583;-74
2023/08/20 11:21:56;;;;;;;13.67;9.17;;;33.40;99.90;;;;;;5051080;28;20448;-75
2023/08/20 11:24:22;;;;;;;14.50;8.60;;;33.40;99.90;;;;;;5034018;28;21003;-75
2023/08/20 11:26:51;;;;;;;10.10;8.63;;;33.40;99.90;;;;;;5042574;28;20493;-76
2023/08/20 11:29:20;;;;;;;10.77;9.10;;;33.30;99.90;;;;;;5050766;28;20460;-74
2023/08/20 11:31:47;;;;;;;12.37;9.27;;;33.40;99.90;;;;;;5045937;28;20457;-74
2023/08/20 11:34:14;;;;;;;9.10;8.20;;;33.40;99.90;;;;;;5042608;28;20449;-74
2023/08/20 11:36:41;;;;;;;9.90;8.90;;;33.60;99.90;;;;;;5042767;28;20485;-74
2023/08/20 11:39:08;;;;;;;12.10;9.27;;;33.80;99.90;;;;;;5035378;28;20473;-75
2023/08/20 11:41:38;;;;;;;11.60;9.73;;;33.40;99.90;;;;;;5046317;28;20449;-74
2023/08/20 11:44:08;;;;;;;10.50;9.40;;;33.00;99.90;;;;;;5038449;28;20461;-75
2023/08/20 11:46:43;;;;;;;11.33;8.73;;;32.90;99.90;;;;;;5048958;28;20455;-74
2023/08/20 11:49:12;;;;;;;10.23;8.20;;;32.90;99.90;;;;;;5044086;28;20486;-74
2023/08/20 11:51:39;;;;;;;9.80;8.80;;;33.00;99.90;;;;;;5043166;28;20453;-74
2023/08/20 11:54:07;;;;;;;11.23;9.00;;;33.10;99.90;;;;;;5039485;28;20876;-74
2023/08/20 11:56:34;;;;;;;9.57;8.50;;;33.30;99.90;;;;;;5033580;28;20559;-74
2023/08/20 11:59:01;;;;;;;11.07;8.37;;;33.50;99.90;;;;;;5040348;28;20476;-76
2023/08/20 12:01:32;;;;;;;12.47;8.20;;;33.50;99.90;;;;;;5038417;28;20558;-74
2023/08/20 12:04:03;;;;;;;8.30;7.30;;;33.60;99.90;;;;;;5042834;28;21197;-75
2023/08/20 12:06:31;;;;;;;8.50;7.27;;;33.80;99.90;;;;;;5041858;28;20523;-75
2023/08/20 12:08:58;;;;;;;9.13;8.27;;;33.90;99.90;;;;;;5039788;28;20485;-74
2023/08/20 12:11:26;;;;;;;10.40;8.70;;;34.00;99.90;;;;;;5041609;28;20459;-75
2023/08/20 12:13:52;;;;;;;10.90;8.60;;;34.00;99.90;;;;;;5046632;28;20493;-72
2023/08/20 12:16:19;;;;;;;12.57;8.20;;;34.00;99.90;;;;;;5036131;28;20546;-73
2023/08/20 12:18:48;;;;;;;8.30;7.60;;;33.90;99.90;;;;;;5041691;28;20964;-73
2023/08/20 12:21:15;;;;;;;10.20;7.33;;;33.90;99.90;;;;;;5042267;28;20944;-73
2023/08/20 12:23:41;;;;;;;15.63;7.27;;;33.80;99.90;;;;;;5039661;28;20488;-75
2023/08/20 12:26:08;;;;;;;12.03;8.00;;;33.90;99.90;;;;;;5053051;28;20939;-74
2023/08/20 12:28:35;;;;;;;8.37;7.57;;;33.80;99.90;;;;;;5054375;28;20510;-73
2023/08/20 12:31:02;;;;;;;10.07;7.50;;;33.90;99.90;;;;;;5046364;28;20511;-73
2023/08/20 12:33:29;;;;;;;8.10;7.30;;;33.60;99.90;;;;;;5051192;28;20471;-74